createdAt,value
2022-07-29T00:01:53.341Z,99.90
2022-07-29T00:04:21.498Z,99.90
2022-07-29T00:06:49.242Z,99.90
2022-07-29T00:09:16.652Z,99.90
2022-07-29T00:11:44.308Z,99.90
2022-07-29T00:14:11.742Z,99.90
2022-07-29T00:16:39.221Z,99.90
2022-07-29T00:19:07.896Z,99.90
2022-07-29T00:21:35.411Z,99.90
2022-07-29T00:24:02.775Z,99.90
2022-07-29T00:26:32.734Z,99.90
2022-07-29T00:29:31.182Z,99.90
2022-07-29T00:31:49.055Z,99.90
2022-07-29T00:34:35.141Z,99.90
2022-07-29T00:37:02.574Z,99.90
2022-07-29T00:39:30.595Z,99.90
2022-07-29T00:41:57.883Z,99.90
2022-07-29T00:44:25.162Z,99.90
2022-07-29T00:46:52.539Z,99.90
2022-07-29T00:49:19.999Z,99.90
2022-07-29T00:51:48.747Z,99.90
2022-07-29T00:54:16.347Z,99.90
2022-07-29T00:56:44.261Z,99.90
2022-07-29T00:59:11.583Z,99.90
2022-07-29T01:01:38.900Z,99.90
2022-07-29T01:04:07.690Z,99.90
2022-07-29T01:06:35.774Z,99.90
2022-07-29T01:09:04.305Z,99.90
2022-07-29T01:11:32.082Z,99.90
2022-07-29T01:13:59.938Z,99.90
2022-07-29T01:16:33.066Z,99.90
2022-07-29T01:19:11.591Z,99.90
2022-07-29T01:21:53.250Z,99.90
2022-07-29T01:24:29.635Z,99.90
2022-07-29T01:27:04.530Z,99.90
2022-07-29T01:29:40.396Z,99.90
2022-07-29T01:32:28.293Z,99.90
2022-07-29T01:35:15.134Z,99.90
2022-07-29T01:37:51.281Z,99.90
2022-07-29T01:40:40.843Z,99.90
2022-07-29T01:43:13.789Z,99.90
2022-07-29T01:46:05.315Z,99.90
2022-07-29T01:48:36.639Z,99.90
2022-07-29T01:51:11.077Z,99.90
2022-07-29T01:53:54.942Z,99.90
2022-07-29T01:56:25.208Z,99.90
2022-07-29T01:58:54.277Z,99.90
2022-07-29T02:01:25.214Z,99.90
2022-07-29T02:03:55.864Z,99.90
2022-07-29T02:06:24.272Z,99.90
2022-07-29T02:08:53.501Z,99.90
2022-07-29T02:11:20.951Z,99.90
2022-07-29T02:13:49.847Z,99.90
2022-07-29T02:16:21.818Z,99.90
2022-07-29T02:18:53.338Z,99.90
2022-07-29T02:21:25.008Z,99.90
2022-07-29T02:23:54.095Z,99.90
2022-07-29T02:26:23.994Z,99.90
2022-07-29T02:28:54.713Z,99.90
2022-07-29T02:31:26.640Z,99.90
2022-07-29T02:33:55.245Z,99.90
2022-07-29T02:36:24.607Z,99.90
2022-07-29T02:38:53.051Z,99.90
2022-07-29T02:41:27.226Z,99.90
2022-07-29T02:44:11.777Z,99.90
2022-07-29T02:46:46.351Z,99.90
2022-07-29T02:49:24.684Z,99.90
2022-07-29T02:52:24.261Z,99.90
2022-07-29T02:55:02.292Z,99.90
2022-07-29T02:57:54.494Z,99.90
2022-07-29T03:00:28.255Z,99.90
2022-07-29T03:02:59.534Z,99.90
2022-07-29T03:05:27.822Z,99.90
2022-07-29T03:08:04.366Z,99.90
2022-07-29T03:10:32.767Z,99.90
2022-07-29T03:13:00.816Z,99.90
2022-07-29T03:15:28.716Z,99.90
2022-07-29T03:17:56.701Z,99.90
2022-07-29T03:20:24.575Z,99.90
2022-07-29T03:22:52.171Z,99.90
2022-07-29T03:25:21.236Z,99.90
2022-07-29T03:27:49.391Z,99.90
2022-07-29T03:30:21.639Z,99.90
2022-07-29T03:32:52.246Z,99.90
2022-07-29T03:35:20.888Z,99.90
2022-07-29T03:37:48.253Z,99.90
2022-07-29T03:40:24.423Z,99.90
2022-07-29T03:42:54.175Z,99.90
2022-07-29T03:45:22.384Z,99.90
2022-07-29T03:48:00.724Z,99.90
2022-07-29T03:50:31.535Z,99.90
2022-07-29T03:53:00.701Z,99.90
2022-07-29T03:55:32.650Z,99.90
2022-07-29T03:58:03.028Z,99.90
2022-07-29T04:00:31.964Z,99.90
2022-07-29T04:02:59.465Z,99.90
2022-07-29T04:05:26.839Z,99.90
2022-07-29T04:07:54.112Z,99.90
2022-07-29T04:10:29.387Z,99.90
2022-07-29T04:13:00.338Z,99.90
2022-07-29T04:15:31.238Z,99.90
2022-07-29T04:18:00.353Z,99.90
2022-07-29T04:20:27.873Z,99.90
2022-07-29T04:22:55.294Z,99.90
2022-07-29T04:25:22.631Z,99.90
2022-07-29T04:28:02.018Z,99.90
2022-07-29T04:30:30.856Z,99.90
2022-07-29T04:32:58.445Z,99.90
2022-07-29T04:35:25.819Z,99.90
2022-07-29T04:37:53.190Z,99.90
2022-07-29T04:40:20.869Z,99.90
2022-07-29T04:42:48.229Z,99.90
2022-07-29T04:45:22.621Z,99.90
2022-07-29T04:47:50.730Z,99.90
2022-07-29T04:50:18.165Z,99.90
2022-07-29T04:52:46.707Z,99.90
2022-07-29T04:55:14.083Z,99.90
2022-07-29T04:57:41.476Z,99.90
2022-07-29T05:00:09.792Z,99.90
2022-07-29T05:02:37.226Z,99.90
2022-07-29T05:05:05.012Z,99.90
2022-07-29T05:10:00.387Z,99.90
2022-07-29T05:12:28.646Z,99.90
2022-07-29T05:14:56.068Z,99.90
2022-07-29T05:17:23.361Z,99.90
2022-07-29T05:19:52.243Z,99.90
2022-07-29T05:22:20.567Z,99.90
2022-07-29T05:24:48.269Z,99.90
2022-07-29T05:27:15.861Z,99.90
2022-07-29T05:29:45.569Z,99.90
2022-07-29T05:32:14.096Z,99.90
2022-07-29T05:34:51.024Z,99.90
2022-07-29T05:37:22.102Z,99.90
2022-07-29T05:39:56.348Z,99.90
2022-07-29T05:42:26.034Z,99.90
2022-07-29T05:44:53.887Z,99.90
2022-07-29T05:47:22.216Z,99.90
2022-07-29T05:49:49.637Z,99.90
2022-07-29T05:52:17.091Z,99.90
2022-07-29T05:54:44.380Z,99.90
2022-07-29T05:57:18.410Z,99.90
2022-07-29T05:59:46.120Z,99.90
2022-07-29T06:02:13.586Z,99.90
2022-07-29T06:04:40.969Z,99.90
2022-07-29T06:07:08.410Z,99.90
2022-07-29T06:09:36.426Z,99.90
2022-07-29T06:12:04.297Z,99.90
2022-07-29T06:14:31.595Z,99.90
2022-07-29T06:16:58.871Z,99.90
2022-07-29T06:19:26.805Z,99.90
2022-07-29T06:21:54.403Z,99.90
2022-07-29T06:24:21.686Z,99.90
2022-07-29T06:26:49.258Z,99.90
2022-07-29T06:29:16.774Z,99.90
2022-07-29T06:31:44.091Z,99.90
2022-07-29T06:34:11.514Z,99.90
2022-07-29T06:36:39.602Z,99.90
2022-07-29T06:39:08.890Z,99.90
2022-07-29T06:41:36.560Z,99.90
2022-07-29T06:44:10.437Z,99.90
2022-07-29T06:46:37.894Z,99.90
2022-07-29T06:49:05.770Z,99.90
2022-07-29T06:51:33.224Z,99.90
2022-07-29T06:54:02.607Z,99.90
2022-07-29T06:56:38.421Z,99.90
2022-07-29T06:59:09.348Z,99.90
2022-07-29T07:01:38.502Z,99.90
2022-07-29T07:04:06.631Z,99.90
2022-07-29T07:06:33.944Z,99.90
2022-07-29T07:09:01.366Z,99.90
2022-07-29T07:11:28.744Z,99.90
2022-07-29T07:14:00.676Z,99.90
2022-07-29T07:16:30.331Z,99.90
2022-07-29T07:18:57.745Z,99.90
2022-07-29T07:21:25.241Z,99.90
2022-07-29T07:23:52.661Z,99.90
2022-07-29T07:26:20.138Z,99.90
2022-07-29T07:28:47.479Z,99.90
2022-07-29T07:31:15.254Z,99.90
2022-07-29T07:33:42.577Z,99.90
2022-07-29T07:36:09.975Z,99.90
2022-07-29T07:38:37.415Z,99.90
2022-07-29T07:41:04.977Z,99.90
2022-07-29T07:43:32.374Z,99.90
2022-07-29T07:45:59.814Z,99.90
2022-07-29T07:48:27.132Z,99.90
2022-07-29T07:50:54.435Z,99.90
2022-07-29T07:53:23.075Z,99.90
2022-07-29T07:58:37.761Z,99.90
2022-07-29T08:01:05.110Z,99.90
2022-07-29T08:03:33.697Z,99.90
2022-07-29T08:06:01.073Z,99.90
2022-07-29T08:08:28.370Z,99.90
2022-07-29T08:10:58.502Z,99.90
2022-07-29T08:13:31.330Z,99.90
2022-07-29T08:16:11.855Z,99.90
2022-07-29T08:18:41.354Z,99.90
2022-07-29T08:21:08.947Z,99.90
2022-07-29T08:23:46.850Z,99.90
2022-07-29T08:26:16.637Z,99.90
2022-07-29T08:28:46.790Z,99.90
2022-07-29T08:31:14.962Z,99.90
2022-07-29T08:33:42.919Z,99.90
2022-07-29T08:36:10.617Z,99.90
2022-07-29T08:38:37.961Z,99.90
2022-07-29T08:41:05.548Z,99.90
2022-07-29T08:43:34.842Z,99.90
2022-07-29T08:46:02.393Z,99.90
2022-07-29T08:48:30.236Z,99.90
2022-07-29T08:50:58.609Z,99.90
2022-07-29T08:53:29.095Z,99.90
2022-07-29T08:55:57.881Z,99.90
2022-07-29T08:58:26.371Z,99.90
2022-07-29T09:00:56.053Z,99.90
2022-07-29T09:03:31.853Z,99.90
2022-07-29T09:06:03.417Z,99.90
2022-07-29T09:08:33.069Z,99.90
2022-07-29T09:11:03.971Z,99.90
2022-07-29T09:13:33.185Z,99.90
2022-07-29T09:16:03.410Z,98.60
2022-07-29T09:18:40.817Z,98.20
2022-07-29T09:21:28.685Z,98.30
2022-07-29T09:24:02.003Z,98.60
2022-07-29T09:26:33.121Z,98.50
2022-07-29T09:29:00.700Z,99.00
2022-07-29T09:31:39.521Z,98.00
2022-07-29T09:34:09.221Z,97.30
2022-07-29T09:36:45.023Z,97.80
2022-07-29T09:39:13.208Z,97.70
2022-07-29T09:41:48.738Z,96.40
2022-07-29T09:44:16.698Z,96.60
2022-07-29T09:47:07.915Z,96.10
2022-07-29T09:49:36.919Z,94.80
2022-07-29T09:52:12.098Z,95.70
2022-07-29T09:54:39.557Z,95.30
2022-07-29T09:57:22.146Z,94.80
2022-07-29T10:00:14.531Z,94.90
2022-07-29T10:02:44.991Z,94.80
2022-07-29T10:05:36.173Z,95.20
2022-07-29T10:08:04.538Z,94.50
2022-07-29T10:10:34.752Z,94.50
2022-07-29T10:13:08.946Z,94.50
2022-07-29T10:15:44.133Z,94.60
2022-07-29T10:18:13.288Z,94.50
2022-07-29T10:20:41.291Z,93.40
2022-07-29T10:23:09.801Z,93.60
2022-07-29T10:25:37.099Z,94.00
2022-07-29T10:28:06.290Z,93.90
2022-07-29T10:30:34.032Z,93.90
2022-07-29T10:33:22.489Z,93.90
2022-07-29T10:36:18.986Z,92.60
2022-07-29T10:38:50.789Z,91.90
2022-07-29T10:41:49.629Z,93.00
2022-07-29T10:44:23.714Z,91.70
2022-07-29T10:46:53.001Z,91.50
2022-07-29T10:52:12.847Z,92.20
2022-07-29T10:54:52.484Z,91.90
2022-07-29T10:57:54.448Z,91.40
2022-07-29T11:03:04.900Z,91.00
2022-07-29T11:05:59.563Z,92.00
2022-07-29T11:08:28.331Z,90.10
2022-07-29T11:11:22.197Z,91.10
2022-07-29T11:13:52.342Z,99.30
2022-07-29T11:16:23.124Z,90.80
2022-07-29T11:19:11.680Z,90.50
2022-07-29T11:21:55.145Z,90.10
2022-07-29T11:24:37.260Z,90.50
2022-07-29T11:27:23.313Z,90.30
2022-07-29T11:30:04.622Z,89.20
2022-07-29T11:32:40.894Z,89.60
2022-07-29T11:35:38.406Z,88.50
2022-07-29T11:38:28.347Z,88.90
2022-07-29T11:41:18.485Z,88.50
2022-07-29T11:43:56.820Z,86.80
2022-07-29T11:46:42.588Z,87.80
2022-07-29T11:49:11.541Z,86.10
2022-07-29T11:51:48.232Z,88.20
2022-07-29T11:54:57.775Z,88.00
2022-07-29T11:57:36.666Z,86.50
2022-07-29T12:00:12.342Z,86.60
2022-07-29T12:02:43.290Z,85.40
2022-07-29T12:05:11.988Z,83.20
2022-07-29T12:07:41.301Z,85.00
2022-07-29T12:10:19.881Z,85.60
2022-07-29T12:12:55.730Z,85.30
2022-07-29T12:15:24.990Z,84.10
2022-07-29T12:18:18.408Z,84.00
2022-07-29T12:20:46.556Z,84.20
2022-07-29T12:23:16.176Z,83.90
2022-07-29T12:25:45.126Z,84.30
2022-07-29T12:28:27.092Z,80.80
2022-07-29T12:30:55.359Z,82.50
2022-07-29T12:33:28.504Z,82.70
2022-07-29T12:36:06.901Z,82.50
2022-07-29T12:38:35.999Z,82.70
2022-07-29T12:41:04.847Z,83.30
2022-07-29T12:43:32.567Z,83.20
2022-07-29T12:46:13.611Z,82.70
2022-07-29T12:48:42.923Z,79.60
2022-07-29T12:51:12.723Z,82.20
2022-07-29T12:53:40.556Z,81.60
2022-07-29T12:56:40.684Z,94.90
2022-07-29T12:59:22.064Z,78.30
2022-07-29T13:01:52.126Z,77.80
2022-07-29T13:04:40.327Z,80.40
2022-07-29T13:07:12.745Z,80.20
2022-07-29T13:09:44.580Z,80.00
2022-07-29T13:12:13.782Z,80.90
2022-07-29T13:14:43.223Z,80.20
2022-07-29T13:17:14.825Z,80.70
2022-07-29T13:19:45.218Z,80.50
2022-07-29T13:22:25.643Z,80.20
2022-07-29T13:24:54.635Z,79.70
2022-07-29T13:27:27.061Z,80.40
2022-07-29T13:29:57.440Z,79.20
2022-07-29T13:32:28.329Z,79.20
2022-07-29T13:34:57.700Z,79.00
2022-07-29T13:37:25.151Z,78.90
2022-07-29T13:39:53.528Z,77.40
2022-07-29T13:42:21.155Z,77.80
2022-07-29T13:44:49.751Z,77.50
2022-07-29T13:47:17.377Z,78.00
2022-07-29T13:49:44.738Z,76.70
2022-07-29T13:52:12.162Z,76.60
2022-07-29T13:54:42.378Z,77.60
2022-07-29T13:57:11.897Z,77.50
2022-07-29T13:59:40.535Z,75.60
2022-07-29T14:02:08.290Z,74.60
2022-07-29T14:04:35.956Z,91.90
2022-07-29T14:07:07.790Z,75.30
2022-07-29T14:09:41.122Z,90.30
2022-07-29T14:12:09.738Z,74.10
2022-07-29T14:14:37.635Z,72.70
2022-07-29T14:17:07.390Z,72.10
2022-07-29T14:19:36.763Z,71.80
2022-07-29T14:22:05.690Z,70.80
2022-07-29T14:24:37.257Z,70.60
2022-07-29T14:27:08.902Z,68.60
2022-07-29T14:29:38.093Z,67.80
2022-07-29T14:32:11.166Z,64.30
2022-07-29T14:34:39.401Z,67.10
2022-07-29T14:37:07.597Z,68.20
2022-07-29T14:39:42.330Z,67.90
2022-07-29T14:42:11.613Z,66.20
2022-07-29T14:44:42.107Z,65.80
2022-07-29T14:47:09.819Z,65.60
2022-07-29T14:49:37.127Z,66.20
2022-07-29T14:52:04.882Z,66.50
2022-07-29T14:54:32.193Z,66.90
2022-07-29T14:57:00.471Z,67.00
2022-07-29T14:59:27.965Z,67.40
2022-07-29T15:01:55.549Z,67.80
2022-07-29T15:04:22.914Z,68.30
2022-07-29T15:06:50.336Z,68.70
2022-07-29T15:09:17.653Z,69.10
2022-07-29T15:11:45.242Z,69.40
2022-07-29T15:14:12.587Z,69.80
2022-07-29T15:16:43.855Z,69.50
2022-07-29T15:19:14.158Z,69.40
2022-07-29T15:21:48.575Z,68.60
2022-07-29T15:24:19.561Z,68.70
2022-07-29T15:26:47.680Z,67.70
2022-07-29T15:29:15.909Z,67.20
2022-07-29T15:31:44.476Z,66.80
2022-07-29T15:34:11.979Z,64.50
2022-07-29T15:36:54.779Z,65.40
2022-07-29T15:39:23.053Z,63.60
2022-07-29T15:41:51.039Z,63.60
2022-07-29T15:44:19.410Z,63.50
2022-07-29T15:47:04.655Z,63.40
2022-07-29T15:49:47.763Z,63.30
2022-07-29T15:52:25.910Z,63.20
2022-07-29T15:54:57.681Z,62.90
2022-07-29T15:57:25.696Z,63.00
2022-07-29T15:59:53.342Z,64.10
2022-07-29T16:02:20.640Z,64.90
2022-07-29T16:04:47.983Z,65.70
2022-07-29T16:07:15.914Z,66.70
2022-07-29T16:09:47.142Z,67.50
2022-07-29T16:12:18.381Z,68.00
2022-07-29T16:14:45.751Z,68.60
2022-07-29T16:17:14.800Z,68.80
2022-07-29T16:19:43.393Z,68.90
2022-07-29T16:22:11.390Z,69.10
2022-07-29T16:24:39.007Z,69.30
2022-07-29T16:27:06.633Z,70.40
2022-07-29T16:29:34.248Z,71.00
2022-07-29T16:32:01.870Z,71.30
2022-07-29T16:34:29.638Z,91.80
2022-07-29T16:36:56.975Z,70.90
2022-07-29T16:39:24.245Z,70.50
2022-07-29T16:41:51.575Z,69.70
2022-07-29T16:44:18.944Z,69.50
2022-07-29T16:46:46.233Z,68.90
2022-07-29T16:49:19.134Z,68.70
2022-07-29T16:51:47.892Z,68.50
2022-07-29T16:54:15.494Z,68.40
2022-07-29T16:56:42.851Z,68.20
2022-07-29T16:59:10.218Z,67.80
2022-07-29T17:01:37.623Z,67.30
2022-07-29T17:04:08.058Z,68.30
2022-07-29T17:06:39.647Z,68.70
2022-07-29T17:09:11.778Z,69.20
2022-07-29T17:11:52.911Z,69.50
2022-07-29T17:14:26.844Z,69.90
2022-07-29T17:17:01.309Z,70.00
2022-07-29T17:19:31.859Z,70.30
2022-07-29T17:22:06.999Z,71.80
2022-07-29T17:24:38.238Z,74.50
2022-07-29T17:27:06.213Z,74.90
2022-07-29T17:29:34.953Z,76.80
2022-07-29T17:32:02.438Z,78.00
2022-07-29T17:34:29.808Z,79.40
2022-07-29T17:36:57.464Z,80.90
2022-07-29T17:39:24.993Z,81.60
2022-07-29T17:41:52.320Z,83.60
2022-07-29T17:44:19.722Z,83.50
2022-07-29T17:46:47.324Z,83.60
2022-07-29T17:49:14.962Z,98.90
2022-07-29T17:51:42.314Z,84.90
2022-07-29T17:54:09.666Z,84.80
2022-07-29T17:56:37.035Z,85.40
2022-07-29T17:59:06.683Z,85.90
2022-07-29T18:01:34.417Z,86.10
2022-07-29T18:04:02.796Z,87.90
2022-07-29T18:06:30.162Z,86.90
2022-07-29T18:08:57.530Z,87.70
2022-07-29T18:11:24.854Z,86.90
2022-07-29T18:13:52.402Z,86.90
2022-07-29T18:16:19.973Z,86.90
2022-07-29T18:18:47.422Z,86.90
2022-07-29T18:21:14.859Z,86.80
2022-07-29T18:23:42.361Z,87.80
2022-07-29T18:26:09.885Z,87.70
2022-07-29T18:28:37.212Z,99.90
2022-07-29T18:31:07.276Z,88.30
2022-07-29T18:33:34.552Z,89.00
2022-07-29T18:36:10.666Z,88.60
2022-07-29T18:38:40.953Z,88.50
2022-07-29T18:41:08.255Z,89.00
2022-07-29T18:43:35.773Z,89.20
2022-07-29T18:46:05.278Z,89.10
2022-07-29T18:48:34.017Z,89.70
2022-07-29T18:51:01.655Z,89.50
2022-07-29T18:53:28.941Z,89.70
2022-07-29T18:56:00.311Z,90.00
2022-07-29T18:58:27.776Z,90.30
2022-07-29T19:00:55.035Z,99.90
2022-07-29T19:03:22.392Z,90.40
2022-07-29T19:05:49.915Z,90.90
2022-07-29T19:08:17.246Z,90.90
2022-07-29T19:10:44.597Z,90.90
2022-07-29T19:13:13.362Z,91.20
2022-07-29T19:15:40.959Z,91.30
2022-07-29T19:18:08.411Z,91.20
2022-07-29T19:20:35.946Z,91.40
2022-07-29T19:23:03.577Z,91.60
2022-07-29T19:25:31.156Z,91.60
2022-07-29T19:28:03.497Z,91.90
2022-07-29T19:30:31.008Z,91.90
2022-07-29T19:32:58.353Z,91.90
2022-07-29T19:35:28.310Z,92.00
2022-07-29T19:37:57.337Z,92.00
2022-07-29T19:40:26.052Z,92.20
2022-07-29T19:42:53.907Z,92.20
2022-07-29T19:45:23.033Z,92.40
2022-07-29T19:47:50.471Z,92.40
2022-07-29T19:50:18.096Z,92.60
2022-07-29T19:52:47.056Z,92.70
2022-07-29T19:55:15.613Z,92.70
2022-07-29T19:57:43.326Z,92.80
2022-07-29T20:00:12.178Z,93.40
2022-07-29T20:02:41.548Z,93.50
2022-07-29T20:05:10.110Z,93.60
2022-07-29T20:07:38.738Z,93.60
2022-07-29T20:10:07.725Z,93.70
2022-07-29T20:12:35.849Z,93.70
2022-07-29T20:15:04.723Z,94.00
2022-07-29T20:17:32.063Z,93.80
2022-07-29T20:20:08.576Z,93.90
2022-07-29T20:22:36.745Z,93.80
2022-07-29T20:25:05.859Z,94.10
2022-07-29T20:27:36.061Z,94.10
2022-07-29T20:30:03.792Z,94.20
2022-07-29T20:32:31.059Z,94.20
2022-07-29T20:34:58.329Z,94.30
2022-07-29T20:37:26.164Z,94.50
2022-07-29T20:39:53.437Z,94.60
2022-07-29T20:42:20.803Z,94.60
2022-07-29T20:44:50.643Z,94.70
2022-07-29T20:47:17.894Z,94.90
2022-07-29T20:49:45.180Z,95.30
2022-07-29T20:52:12.693Z,94.90
2022-07-29T20:54:39.962Z,95.10
2022-07-29T20:57:07.286Z,95.10
2022-07-29T20:59:34.743Z,95.20
2022-07-29T21:02:02.114Z,96.00
2022-07-29T21:04:30.921Z,95.70
2022-07-29T21:07:00.061Z,95.90
2022-07-29T21:09:28.353Z,96.70
2022-07-29T21:11:55.734Z,96.30
2022-07-29T21:14:43.269Z,96.60
2022-07-29T21:17:10.651Z,96.40
2022-07-29T21:19:37.973Z,96.60
2022-07-29T21:22:05.457Z,96.40
2022-07-29T21:24:32.770Z,96.30
2022-07-29T21:27:21.062Z,96.90
2022-07-29T21:29:49.237Z,96.70
2022-07-29T21:34:57.405Z,97.10
2022-07-29T21:37:25.049Z,97.20
2022-07-29T21:39:52.598Z,96.90
2022-07-29T21:42:19.898Z,96.90
2022-07-29T21:44:47.271Z,97.40
2022-07-29T21:47:14.541Z,97.00
2022-07-29T21:49:41.839Z,97.40
2022-07-29T21:52:09.175Z,97.30
2022-07-29T21:54:36.504Z,97.50
2022-07-29T21:57:04.554Z,97.70
2022-07-29T21:59:32.133Z,97.60
2022-07-29T22:02:01.015Z,97.80
2022-07-29T22:04:29.640Z,98.00
2022-07-29T22:06:58.393Z,97.70
2022-07-29T22:09:25.873Z,98.10
2022-07-29T22:11:53.369Z,98.10
2022-07-29T22:14:21.021Z,98.50
2022-07-29T22:16:48.843Z,99.90
2022-07-29T22:19:16.362Z,98.60
2022-07-29T22:21:43.710Z,98.30
2022-07-29T22:24:11.249Z,99.00
2022-07-29T22:26:38.648Z,99.00
2022-07-29T22:29:06.511Z,99.20
2022-07-29T22:31:34.023Z,98.70
2022-07-29T22:34:01.367Z,99.20
2022-07-29T22:36:28.668Z,98.90
2022-07-29T22:38:56.009Z,99.30
2022-07-29T22:41:23.298Z,99.40
2022-07-29T22:43:50.668Z,99.20
2022-07-29T22:46:18.052Z,99.10
2022-07-29T22:48:45.453Z,99.30
2022-07-29T22:51:12.807Z,99.30
2022-07-29T22:53:40.207Z,99.20
2022-07-29T22:56:07.603Z,99.10
2022-07-29T22:58:35.085Z,99.20
2022-07-29T23:01:02.512Z,99.10
2022-07-29T23:03:29.976Z,99.10
2022-07-29T23:05:57.366Z,99.30
2022-07-29T23:08:24.660Z,99.20
2022-07-29T23:10:51.979Z,99.20
2022-07-29T23:13:19.252Z,99.10
2022-07-29T23:15:46.556Z,99.30
2022-07-29T23:18:14.154Z,99.10
2022-07-29T23:20:42.949Z,99.10
2022-07-29T23:23:10.275Z,99.10
2022-07-29T23:25:38.485Z,99.00
2022-07-29T23:28:05.909Z,99.10
2022-07-29T23:30:33.246Z,99.00
2022-07-29T23:33:01.038Z,99.00
2022-07-29T23:35:28.496Z,99.00
2022-07-29T23:37:55.884Z,99.10
2022-07-29T23:40:23.207Z,99.10
2022-07-29T23:42:50.572Z,99.10
2022-07-29T23:45:17.899Z,99.10
2022-07-29T23:47:45.275Z,99.20
2022-07-29T23:50:13.055Z,99.20
2022-07-29T23:52:41.131Z,99.20
2022-07-29T23:55:38.108Z,99.20
2022-07-29T23:57:56.529Z,99.20
